Flight Track Log - Related Links

Times and Time Zones

All times are in EDT time to prevent confusion due to time zone crossing. See the FSR411 flight status page for this flight to view local times or setup timezone preferences in your user account.

Time Position Orientation Groundspeed Altitude Reporting Facility
EDT Latitude Longitude Course Direction KTS MPH feet Rate Location/Type
Thu 05:39:12 PM 42.3628 -82.9606 141° Southeast 218 251 3,800  Level Cleveland Center
Thu 05:40:07 PM 42.3136 -82.9108 143° Southeast 268 308 5,000 931 Climbing Cleveland Center
Thu 05:41:08 PM 42.2483 -82.8439 143° Southeast 298 343 5,600 2,109 Climbing Cleveland Center
Thu 05:42:15 PM 42.1631 -82.8269 172° South 297 342 9,500 3,293 Climbing Cleveland Center
Thu 05:43:21 PM 42.0989 -82.9169 226° Southwest 305 351 12,900 2,810 Climbing Cleveland Center
Thu 05:44:21 PM 42.0464 -83.0297 238° Southwest 329 379 15,400 1,550 Climbing Cleveland Center
Thu 05:45:21 PM 41.9894 -83.1533 238° Southwest 364 419 16,000 1,650 Climbing Cleveland Center
Thu 05:46:21 PM 41.9303 -83.2794 238° Southwest 396 456 18,700 3,000 Climbing Cleveland Center
Thu 05:47:21 PM 41.8689 -83.4050 237° Southwest 407 468 22,000 3,100 Climbing Cleveland Center
Thu 05:48:21 PM 41.8050 -83.5389 237° Southwest 417 480 24,900 2,500 Climbing Cleveland Center
Thu 05:49:21 PM 41.7556 -83.6786 245° Southwest 422 486 27,000 1,500 Climbing Cleveland Center
Thu 05:50:21 PM 41.7014 -83.8317 245° Southwest 433 498 27,900 500 Climbing Cleveland Center
Thu 05:51:21 PM 41.6489 -83.9875 246° West 449 517 28,000 50 Climbing Cleveland Center
Thu 05:52:21 PM 41.5961 -84.1403 245° Southwest 455 524 28,000  Level Cleveland Center
Thu 05:54:51 PM 41.4736 -84.4892 245° Southwest 450 518 28,000  Level Chicago Center
Thu 05:55:53 PM 41.4092 -84.6708 245° Southwest 451 519 28,000  Level Chicago Center
Thu 05:56:55 PM 41.3633 -84.8256 249° West 454 522 28,000  Level Chicago Center
Thu 05:57:58 PM 41.3436 -84.9869 261° West 441 507 28,000  Level Chicago Center
Thu 05:59:00 PM 41.2965 -85.1057 244° Southwest  Level FlightAware Approximate
Thu 05:59:00 PM 41.3172 -85.1494 244° Southwest 446 513 28,000  Level Chicago Center
Thu 06:00:02 PM 41.2589 -85.3011 243° Southwest 454 522 28,000  Level Chicago Center
Thu 06:01:04 PM 41.2008 -85.4508 243° Southwest 454 522 28,000  Level Chicago Center
Thu 06:02:06 PM 41.1411 -85.6014 242° Southwest 456 525 28,000  Level Chicago Center
Thu 06:03:08 PM 41.0819 -85.7514 242° Southwest 458 527 28,000  Level Chicago Center
Thu 06:04:10 PM 41.0114 -85.9300 242° Southwest 455 524 28,000  Level Chicago Center
Thu 06:05:12 PM 40.9517 -86.0794 242° Southwest 458 527 28,000  Level Chicago Center
Thu 06:06:14 PM 40.8917 -86.2294 242° Southwest 461 531 28,000  Level Chicago Center
Thu 06:07:16 PM 40.8317 -86.3772 242° Southwest 457 526 28,000 -387 Level Chicago Center
Thu 06:08:18 PM 40.7728 -86.5236 242° Southwest 454 522 27,200 -1,355 Descending Chicago Center
Thu 06:09:20 PM 40.7142 -86.6675 242° Southwest 447 514 25,200 -2,129 Descending Chicago Center
Thu 06:10:22 PM 40.6489 -86.8258 242° Southwest 449 517 22,800 -2,371 Descending Chicago Center
Thu 06:11:24 PM 40.5911 -86.9669 242° Southwest 443 510 20,300 -2,448 Descending Chicago Center
Thu 06:12:27 PM 40.5314 -87.1103 241° Southwest 426 490 17,700 -2,448 Descending Chicago Center
Thu 06:13:29 PM 40.4803 -87.2378 242° Southwest 403 464 15,200 -2,371 Descending Chicago Center
Thu 06:14:31 PM 40.4214 -87.3764 241° Southwest 390 449 12,800 -1,984 Descending Chicago Center
Thu 06:15:33 PM 40.3711 -87.4994 242° Southwest 366 421 11,100 -1,306 Descending Chicago Center
Thu 06:16:35 PM 40.3269 -87.6044 241° Southwest 337 388 10,100 -1,210 Descending Chicago Center
Thu 06:17:37 PM 40.2883 -87.6961 241° Southwest 300 345 8,600 -1,645 Descending Chicago Center
Thu 06:18:39 PM 40.2506 -87.7839 241° Southwest 282 325 6,700 -2,081 Descending Chicago Center
Thu 06:19:41 PM 40.2075 -87.8864 241° Southwest 274 315 4,300 -1,500 Descending Chicago Center
Thu 06:20:43 PM 40.1778 -87.9561 241° Southwest 268 308 3,600 -677 Descending Chicago Center
Thu 06:22:00 PM 40.1091 -88.0893 246° West  Level FlightAware Approximate
Thu 06:29:00 PM 40.0333 -88.2667 246° West  Level FlightAware Approximate
Thu 06:30:00 PM 40.0388 -88.2778 246° West  Level Estimated
Thu 06:31:00 PM 40.0388 -88.2778 246° West  Level Estimated
Thu 06:32:00 PM 40.0388 -88.2778 246° West  Level Estimated
Thu 06:33:00 PM 40.0388 -88.2778 246° West  Level Estimated
Thu 06:34:00 PM 40.0388 -88.2778 246° West  Level Estimated
Thu 06:35:00 PM 40.0388 -88.2778 246° West  Level Estimated

Login

Don't have an account? Register now (free) for customized features, flight alerts, and more!